createdAt,value
2017-12-31T00:00:51.101Z,13.97
2017-12-31T00:03:19.981Z,15.10
2017-12-31T00:05:49.175Z,10.32
2017-12-31T00:08:19.026Z,12.23
2017-12-31T00:10:48.038Z,13.50
2017-12-31T00:13:18.204Z,11.38
2017-12-31T00:15:48.020Z,9.50
2017-12-31T00:18:18.465Z,11.30
2017-12-31T00:20:49.229Z,12.23
2017-12-31T00:23:18.202Z,9.10
2017-12-31T00:25:48.029Z,11.15
2017-12-31T00:28:17.008Z,11.80
2017-12-31T00:30:45.967Z,11.60
2017-12-31T00:33:15.871Z,11.87
2017-12-31T00:35:44.901Z,13.47
2017-12-31T00:38:14.106Z,10.37
2017-12-31T00:40:43.877Z,11.20
2017-12-31T00:43:12.817Z,10.40
2017-12-31T00:45:41.932Z,11.47
2017-12-31T00:48:12.604Z,10.37
2017-12-31T00:50:41.405Z,10.90
2017-12-31T00:53:10.252Z,13.30
2017-12-31T00:55:39.081Z,18.77
2017-12-31T00:58:07.895Z,14.80
2017-12-31T01:00:36.770Z,11.63
2017-12-31T01:03:05.770Z,10.80
2017-12-31T01:05:34.621Z,14.50
2017-12-31T01:08:03.570Z,16.37
2017-12-31T01:10:34.240Z,25.03
2017-12-31T01:13:03.103Z,13.20
2017-12-31T01:15:32.088Z,12.00
2017-12-31T01:18:03.738Z,9.90
2017-12-31T01:20:32.873Z,9.60
2017-12-31T01:23:01.823Z,9.90
2017-12-31T01:25:31.144Z,10.67
2017-12-31T01:28:01.149Z,10.43
2017-12-31T01:30:30.994Z,11.50
2017-12-31T01:33:00.659Z,8.57
2017-12-31T01:35:29.688Z,11.60
2017-12-31T01:37:58.807Z,9.13
2017-12-31T01:40:28.017Z,10.57
2017-12-31T01:42:56.981Z,10.30
2017-12-31T01:45:25.797Z,12.93
2017-12-31T01:47:56.500Z,9.57
2017-12-31T01:50:25.771Z,10.40
2017-12-31T01:52:54.583Z,8.70
2017-12-31T01:55:23.453Z,9.33
2017-12-31T01:57:52.406Z,9.17
2017-12-31T02:00:21.211Z,8.50
2017-12-31T02:02:50.214Z,9.10
2017-12-31T02:05:18.990Z,9.97
2017-12-31T02:07:47.845Z,7.47
2017-12-31T02:10:16.944Z,10.47
2017-12-31T02:12:45.777Z,9.20
2017-12-31T02:15:14.740Z,10.10
2017-12-31T02:17:43.664Z,8.33
2017-12-31T02:20:12.567Z,10.23
2017-12-31T02:22:41.490Z,8.80
2017-12-31T02:25:12.123Z,9.97
2017-12-31T02:27:41.088Z,10.00
2017-12-31T02:30:09.878Z,12.40
2017-12-31T02:32:38.832Z,12.93
2017-12-31T02:35:07.855Z,12.83
2017-12-31T02:37:36.716Z,13.30
2017-12-31T02:40:05.596Z,13.23
2017-12-31T02:42:34.412Z,12.33
2017-12-31T02:45:03.408Z,11.73
2017-12-31T02:47:34.014Z,14.77
2017-12-31T02:50:02.942Z,12.90
2017-12-31T02:52:31.897Z,12.30
2017-12-31T02:55:00.828Z,12.83
2017-12-31T02:57:29.666Z,11.73
2017-12-31T02:59:58.482Z,14.37
2017-12-31T03:02:27.351Z,12.43
2017-12-31T03:04:56.199Z,15.43
2017-12-31T03:07:25.126Z,13.13
2017-12-31T03:09:54.196Z,12.50
2017-12-31T03:12:23.159Z,12.60
2017-12-31T03:14:51.994Z,19.50
2017-12-31T03:17:20.879Z,15.73
2017-12-31T03:19:49.649Z,16.93
2017-12-31T03:22:18.671Z,17.20
2017-12-31T03:27:21.160Z,16.80
2017-12-31T03:29:50.254Z,21.70
2017-12-31T03:32:21.345Z,22.63
2017-12-31T03:34:50.193Z,26.43
2017-12-31T03:37:19.139Z,23.73
2017-12-31T03:39:49.738Z,29.10
2017-12-31T03:42:18.613Z,28.80
2017-12-31T03:44:47.677Z,28.77
2017-12-31T03:47:17.761Z,35.90
2017-12-31T03:49:46.762Z,37.80
2017-12-31T03:52:15.688Z,41.77
2017-12-31T03:54:44.706Z,43.33
2017-12-31T03:57:14.682Z,47.20
2017-12-31T03:59:43.479Z,41.63
2017-12-31T04:02:12.386Z,41.67
2017-12-31T04:04:41.178Z,43.73
2017-12-31T04:07:10.061Z,43.00
2017-12-31T04:09:38.922Z,42.57
2017-12-31T04:12:07.723Z,41.87
2017-12-31T04:14:36.674Z,41.93
2017-12-31T04:19:39.701Z,45.00
2017-12-31T04:22:08.603Z,43.37
2017-12-31T04:24:38.444Z,43.90
2017-12-31T04:27:07.344Z,44.03
2017-12-31T04:29:36.258Z,41.47
2017-12-31T04:32:05.153Z,40.00
2017-12-31T04:34:34.140Z,44.43
2017-12-31T04:37:02.968Z,43.63
2017-12-31T04:39:32.729Z,44.57
2017-12-31T04:42:01.677Z,44.53
2017-12-31T04:44:30.587Z,47.87
2017-12-31T04:46:59.499Z,38.20
2017-12-31T04:49:28.308Z,47.90
2017-12-31T04:51:57.254Z,50.60
2017-12-31T04:54:26.097Z,46.40
2017-12-31T04:56:54.878Z,53.87
2017-12-31T04:59:23.741Z,40.37
2017-12-31T05:04:26.716Z,55.90
2017-12-31T05:06:55.720Z,53.60
2017-12-31T05:09:24.820Z,47.27
2017-12-31T05:11:53.755Z,53.17
2017-12-31T05:14:22.784Z,55.07
2017-12-31T05:19:25.535Z,52.93
2017-12-31T05:21:54.294Z,59.60
2017-12-31T05:24:23.379Z,68.87
2017-12-31T05:26:53.108Z,58.37
2017-12-31T05:29:21.912Z,55.57
2017-12-31T05:31:51.031Z,55.47
2017-12-31T05:34:20.029Z,60.80
2017-12-31T05:36:48.923Z,50.33
2017-12-31T05:39:17.938Z,55.67
2017-12-31T05:41:46.886Z,50.00
2017-12-31T05:44:16.961Z,58.37
2017-12-31T05:46:46.811Z,55.40
2017-12-31T05:49:15.752Z,48.87
2017-12-31T05:51:44.642Z,49.23
2017-12-31T05:54:14.751Z,51.30
2017-12-31T05:56:43.541Z,49.93
2017-12-31T05:59:12.357Z,47.93
2017-12-31T06:01:43.837Z,46.97
2017-12-31T06:04:12.774Z,40.80
2017-12-31T06:06:41.689Z,37.20
2017-12-31T06:09:10.760Z,35.42
2017-12-31T06:11:39.645Z,35.60
2017-12-31T06:14:08.771Z,35.80
2017-12-31T06:16:37.733Z,43.17
2017-12-31T06:19:06.631Z,33.30
2017-12-31T06:21:36.387Z,40.93
2017-12-31T06:24:06.133Z,37.45
2017-12-31T06:26:35.041Z,40.00
2017-12-31T06:29:03.828Z,37.20
2017-12-31T06:31:33.522Z,35.83
2017-12-31T06:34:02.467Z,34.50
2017-12-31T06:36:31.292Z,35.45
2017-12-31T06:39:02.158Z,37.13
2017-12-31T06:41:32.117Z,36.10
2017-12-31T06:44:00.965Z,34.40
2017-12-31T06:46:32.766Z,38.60
2017-12-31T06:49:01.772Z,38.83
2017-12-31T06:51:31.124Z,32.97
2017-12-31T06:54:00.050Z,34.63
2017-12-31T06:56:28.899Z,33.30
2017-12-31T06:58:57.739Z,32.80
2017-12-31T07:01:28.547Z,28.37
2017-12-31T07:03:57.365Z,32.90
2017-12-31T07:06:26.339Z,36.53
2017-12-31T07:08:56.813Z,34.80
2017-12-31T07:11:25.760Z,34.03
2017-12-31T07:13:54.640Z,31.27
2017-12-31T07:16:23.558Z,29.67
2017-12-31T07:18:52.574Z,35.50
2017-12-31T07:21:21.852Z,32.60
2017-12-31T07:23:51.787Z,38.60
2017-12-31T07:26:20.728Z,40.47
2017-12-31T07:28:49.693Z,32.63
2017-12-31T07:31:20.456Z,36.30
2017-12-31T07:33:49.352Z,34.33
2017-12-31T07:36:18.239Z,36.10
2017-12-31T07:38:47.092Z,32.00
2017-12-31T07:41:15.952Z,31.30
2017-12-31T07:43:44.777Z,33.90
2017-12-31T07:46:15.468Z,38.47
2017-12-31T07:48:44.365Z,36.40
2017-12-31T07:51:13.153Z,32.22
2017-12-31T07:53:42.026Z,33.92
2017-12-31T07:56:10.955Z,34.07
2017-12-31T07:58:39.851Z,32.90
2017-12-31T08:01:09.573Z,31.80
2017-12-31T08:03:38.493Z,31.70
2017-12-31T08:06:07.339Z,30.17
2017-12-31T08:08:36.265Z,25.47
2017-12-31T08:11:05.104Z,28.50
2017-12-31T08:13:33.920Z,24.50
2017-12-31T08:16:04.434Z,27.30
2017-12-31T08:18:33.354Z,25.93
2017-12-31T08:21:02.203Z,27.10
2017-12-31T08:23:34.286Z,27.00
2017-12-31T08:26:03.310Z,23.13
2017-12-31T08:28:32.178Z,18.60
2017-12-31T08:31:02.334Z,23.57
2017-12-31T08:33:31.143Z,21.30
2017-12-31T08:36:00.030Z,18.80
2017-12-31T08:38:28.932Z,23.07
2017-12-31T08:40:57.793Z,18.30
2017-12-31T08:43:26.638Z,22.37
2017-12-31T08:45:55.594Z,20.27
2017-12-31T08:48:24.733Z,21.00
2017-12-31T08:50:53.757Z,15.37
2017-12-31T08:53:22.813Z,18.93
2017-12-31T08:55:52.380Z,19.83
2017-12-31T08:58:21.434Z,15.77
2017-12-31T09:00:50.374Z,15.37
2017-12-31T09:03:19.467Z,15.50
2017-12-31T09:05:48.367Z,17.17
2017-12-31T09:08:18.117Z,17.60
2017-12-31T09:10:46.983Z,14.73
2017-12-31T09:13:15.895Z,13.80
2017-12-31T09:15:48.513Z,15.43
2017-12-31T09:18:19.874Z,17.93
2017-12-31T09:20:52.137Z,12.97
2017-12-31T09:23:24.817Z,18.03
2017-12-31T09:25:58.300Z,13.43
2017-12-31T09:28:32.249Z,16.73
2017-12-31T09:31:03.976Z,16.30
2017-12-31T09:33:35.222Z,15.80
2017-12-31T09:38:43.146Z,15.47
2017-12-31T09:43:50.149Z,12.17
2017-12-31T09:46:21.124Z,15.33
2017-12-31T09:48:54.683Z,15.23
2017-12-31T09:51:23.549Z,11.87
2017-12-31T09:53:52.342Z,16.13
2017-12-31T09:56:26.164Z,13.10
2017-12-31T09:58:57.929Z,14.43
2017-12-31T10:01:32.417Z,14.03
2017-12-31T10:04:05.534Z,17.97
2017-12-31T10:09:10.796Z,14.90
2017-12-31T10:11:41.150Z,13.37
2017-12-31T10:14:13.557Z,11.23
2017-12-31T10:16:45.058Z,12.10
2017-12-31T10:21:53.089Z,12.83
2017-12-31T10:24:22.036Z,9.07
2017-12-31T10:26:51.935Z,12.57
2017-12-31T10:29:20.789Z,14.20
2017-12-31T10:31:49.616Z,9.30
2017-12-31T10:34:18.436Z,12.00
2017-12-31T10:36:47.268Z,9.80
2017-12-31T10:39:17.044Z,11.77
2017-12-31T10:41:49.354Z,13.97
2017-12-31T10:44:20.500Z,9.73
2017-12-31T10:46:50.115Z,9.60
2017-12-31T10:49:19.172Z,12.57
2017-12-31T10:51:48.019Z,10.70
2017-12-31T10:54:19.019Z,11.80
2017-12-31T10:56:58.094Z,7.80
2017-12-31T10:59:29.150Z,7.30
2017-12-31T11:02:00.562Z,6.23
2017-12-31T11:04:30.396Z,7.03
2017-12-31T11:07:00.289Z,7.93
2017-12-31T11:09:29.829Z,7.70
2017-12-31T11:11:59.910Z,7.50
2017-12-31T11:14:32.235Z,11.93
2017-12-31T11:17:02.624Z,9.00
2017-12-31T11:19:31.434Z,7.93
2017-12-31T11:22:00.353Z,9.17
2017-12-31T11:24:29.218Z,8.20
2017-12-31T11:26:58.175Z,7.53
2017-12-31T11:29:29.209Z,7.30
2017-12-31T11:31:58.178Z,6.37
2017-12-31T11:34:27.113Z,10.70
2017-12-31T11:39:30.673Z,5.97
2017-12-31T11:41:59.597Z,7.97
2017-12-31T11:44:28.932Z,7.43
2017-12-31T11:46:58.157Z,6.90
2017-12-31T11:49:27.278Z,7.10
2017-12-31T11:51:57.069Z,5.67
2017-12-31T11:54:27.216Z,5.97
2017-12-31T11:56:56.126Z,5.67
2017-12-31T11:59:25.123Z,6.43
2017-12-31T12:01:54.417Z,6.03
2017-12-31T12:04:23.918Z,6.43
2017-12-31T12:06:55.888Z,6.37
2017-12-31T12:09:26.895Z,7.10
2017-12-31T12:11:58.484Z,10.63
2017-12-31T12:14:27.615Z,7.80
2017-12-31T12:16:58.061Z,8.30
2017-12-31T12:19:27.770Z,12.87
2017-12-31T12:21:58.003Z,10.23
2017-12-31T12:24:27.751Z,9.77
2017-12-31T12:26:58.159Z,11.77
2017-12-31T12:29:27.553Z,8.77
2017-12-31T12:32:02.913Z,7.93
2017-12-31T12:34:33.195Z,7.67
2017-12-31T12:37:06.777Z,9.30
2017-12-31T12:39:37.225Z,9.77
2017-12-31T12:42:08.824Z,8.00
2017-12-31T12:44:39.995Z,8.60
2017-12-31T12:47:12.344Z,6.57
2017-12-31T12:49:44.308Z,6.90
2017-12-31T12:52:13.739Z,7.13
2017-12-31T12:54:43.481Z,7.93
2017-12-31T12:57:13.164Z,7.87
2017-12-31T12:59:44.830Z,6.57
2017-12-31T13:02:14.674Z,13.53
2017-12-31T13:04:46.789Z,8.20
2017-12-31T13:07:19.220Z,9.30
2017-12-31T13:09:48.797Z,11.97
2017-12-31T13:12:17.640Z,10.77
2017-12-31T13:14:46.815Z,12.50
2017-12-31T13:17:16.743Z,11.30
2017-12-31T13:19:45.806Z,9.10
2017-12-31T13:22:14.952Z,10.80
2017-12-31T13:24:44.149Z,16.63
2017-12-31T13:27:13.564Z,9.93
2017-12-31T13:29:42.640Z,9.27
2017-12-31T13:32:11.575Z,6.90
2017-12-31T13:34:40.671Z,7.60
2017-12-31T13:37:10.393Z,9.63
2017-12-31T13:39:41.028Z,8.00
2017-12-31T13:42:10.554Z,7.37
2017-12-31T13:44:40.480Z,8.57
2017-12-31T13:47:09.645Z,13.00
2017-12-31T13:49:38.719Z,8.10
2017-12-31T13:52:07.713Z,10.77
2017-12-31T13:54:36.613Z,8.37
2017-12-31T13:57:05.602Z,12.50
2017-12-31T13:59:34.917Z,10.43
2017-12-31T14:02:06.053Z,11.30
2017-12-31T14:04:35.163Z,13.10
2017-12-31T14:07:05.105Z,25.07
2017-12-31T14:09:35.198Z,20.77
2017-12-31T14:12:05.008Z,25.70
2017-12-31T14:14:35.224Z,14.67
2017-12-31T14:17:05.059Z,20.53
2017-12-31T14:19:35.463Z,17.07
2017-12-31T14:22:09.543Z,25.80
2017-12-31T14:24:39.509Z,24.23
2017-12-31T14:27:09.272Z,16.90
2017-12-31T14:32:14.861Z,15.70
2017-12-31T15:16:42.579Z,123.40
2017-12-31T15:19:11.641Z,94.17
2017-12-31T15:21:40.732Z,49.90
2017-12-31T15:24:10.615Z,45.67
2017-12-31T15:26:42.664Z,48.17
2017-12-31T15:29:12.514Z,39.27
2017-12-31T15:31:41.900Z,39.97
2017-12-31T15:34:11.102Z,44.73
2017-12-31T15:36:40.830Z,38.37
2017-12-31T15:39:10.107Z,41.80
2017-12-31T15:41:39.595Z,35.87
2017-12-31T15:44:10.878Z,39.27
2017-12-31T15:46:40.957Z,35.73
2017-12-31T15:49:10.100Z,42.50
2017-12-31T15:51:43.649Z,43.23
2017-12-31T15:54:12.627Z,52.07
2017-12-31T15:56:42.044Z,49.53
2017-12-31T16:01:45.315Z,63.20
2017-12-31T16:04:14.635Z,54.20
2017-12-31T16:06:45.888Z,53.13
2017-12-31T16:09:15.058Z,48.87
2017-12-31T16:11:45.308Z,42.43
2017-12-31T16:14:17.767Z,44.47
2017-12-31T16:16:47.166Z,42.92
2017-12-31T16:19:16.179Z,37.37
2017-12-31T16:21:45.977Z,39.00
2017-12-31T16:24:15.047Z,49.17
2017-12-31T16:26:45.581Z,60.53
2017-12-31T16:29:17.101Z,66.47
2017-12-31T16:31:48.713Z,63.08
2017-12-31T16:34:20.156Z,61.22
2017-12-31T16:36:49.959Z,63.63
2017-12-31T16:39:18.965Z,57.55
2017-12-31T16:41:49.902Z,50.90
2017-12-31T16:44:19.117Z,41.53
2017-12-31T16:46:48.211Z,45.38
2017-12-31T16:49:19.694Z,44.73
2017-12-31T16:51:48.816Z,45.80
2017-12-31T16:54:17.929Z,34.57
2017-12-31T16:56:47.168Z,30.90
2017-12-31T16:59:16.984Z,36.23
2017-12-31T17:01:50.166Z,28.40
2017-12-31T17:04:19.142Z,35.27
2017-12-31T17:06:48.281Z,29.70
2017-12-31T17:09:17.334Z,23.23
2017-12-31T17:11:46.217Z,20.50
2017-12-31T17:14:15.246Z,22.87
2017-12-31T17:16:49.132Z,16.67
2017-12-31T17:19:18.966Z,17.03
2017-12-31T17:21:48.067Z,12.07
2017-12-31T17:24:17.014Z,14.90
2017-12-31T17:26:47.141Z,19.43
2017-12-31T17:29:15.986Z,21.23
2017-12-31T17:31:46.385Z,15.43
2017-12-31T17:34:15.333Z,14.20
2017-12-31T17:36:44.685Z,16.03
2017-12-31T17:39:13.574Z,17.63
2017-12-31T17:41:44.905Z,22.17
2017-12-31T17:44:14.128Z,20.97
2017-12-31T17:46:44.062Z,21.17
2017-12-31T17:49:13.100Z,23.30
2017-12-31T17:51:41.950Z,22.00
2017-12-31T17:54:11.809Z,25.03
2017-12-31T17:56:40.798Z,17.90
2017-12-31T17:59:09.790Z,12.40
2017-12-31T18:01:39.943Z,10.30
2017-12-31T18:04:09.012Z,13.10
2017-12-31T18:06:38.038Z,23.93
2017-12-31T18:09:07.066Z,19.90
2017-12-31T18:11:36.406Z,20.40
2017-12-31T18:14:06.316Z,34.97
2017-12-31T18:16:37.113Z,58.57
2017-12-31T18:19:06.275Z,34.23
2017-12-31T18:21:38.785Z,25.07
2017-12-31T18:24:07.860Z,33.43
2017-12-31T18:26:36.921Z,26.30
2017-12-31T18:29:08.160Z,51.73
2017-12-31T18:31:37.566Z,82.57
2017-12-31T18:34:06.555Z,77.37
2017-12-31T18:36:37.510Z,82.40
2017-12-31T18:39:06.700Z,77.35
2017-12-31T18:41:39.226Z,149.07
2017-12-31T18:44:12.120Z,158.40
2017-12-31T18:46:50.109Z,113.78
2017-12-31T18:49:21.934Z,132.30
2017-12-31T18:54:27.213Z,31.02
2017-12-31T18:56:56.280Z,20.33
2017-12-31T18:59:26.128Z,18.17
2017-12-31T19:01:56.128Z,15.27
2017-12-31T19:04:25.177Z,12.70
2017-12-31T19:06:58.393Z,13.87
2017-12-31T19:09:32.020Z,16.77
2017-12-31T19:12:06.905Z,16.73
2017-12-31T19:14:36.546Z,12.30
2017-12-31T19:17:05.475Z,19.93
2017-12-31T19:19:34.561Z,19.03
2017-12-31T19:22:03.524Z,17.17
2017-12-31T19:24:33.084Z,15.70
2017-12-31T19:27:03.942Z,14.47
2017-12-31T19:29:32.862Z,14.67
2017-12-31T19:32:07.731Z,18.03
2017-12-31T19:34:36.578Z,12.57
2017-12-31T19:37:05.591Z,12.97
2017-12-31T19:39:35.459Z,12.40
2017-12-31T19:42:06.103Z,15.30
2017-12-31T19:44:35.866Z,13.70
2017-12-31T19:47:07.391Z,15.23
2017-12-31T19:49:36.305Z,17.77
2017-12-31T19:52:05.210Z,21.97
2017-12-31T19:54:34.264Z,21.63
2017-12-31T19:57:03.402Z,24.93
2017-12-31T19:59:32.353Z,25.43
2017-12-31T20:02:01.352Z,33.13
2017-12-31T20:04:30.513Z,66.97
2017-12-31T20:06:59.557Z,75.43
2017-12-31T20:09:28.641Z,105.37
2017-12-31T20:11:57.777Z,97.43
2017-12-31T20:14:26.703Z,76.47
2017-12-31T20:16:56.657Z,83.87
2017-12-31T20:19:25.742Z,104.32
2017-12-31T20:21:54.826Z,91.85
2017-12-31T20:26:59.785Z,82.25
2017-12-31T20:29:29.577Z,75.07
2017-12-31T20:31:58.787Z,84.28
2017-12-31T20:34:27.895Z,76.93
2017-12-31T20:36:58.055Z,63.30
2017-12-31T20:39:28.840Z,65.90
2017-12-31T20:41:58.869Z,69.93
2017-12-31T20:44:28.711Z,66.32
2017-12-31T20:46:58.576Z,78.95
2017-12-31T20:49:27.594Z,74.97
2017-12-31T20:51:57.608Z,74.25
2017-12-31T20:54:26.535Z,79.87
2017-12-31T20:56:55.399Z,95.70
2017-12-31T20:59:24.322Z,106.95
2017-12-31T21:01:53.424Z,112.60
2017-12-31T21:04:22.477Z,92.70
2017-12-31T21:06:51.548Z,44.58
2017-12-31T21:09:22.407Z,26.55
2017-12-31T21:11:51.852Z,18.42
2017-12-31T21:14:20.947Z,11.95
2017-12-31T21:16:50.692Z,9.88
2017-12-31T21:19:19.545Z,7.93
2017-12-31T21:21:49.631Z,8.95
2017-12-31T21:24:18.633Z,9.43
2017-12-31T21:26:47.618Z,9.05
2017-12-31T21:29:16.650Z,5.80
2017-12-31T21:34:22.589Z,4.35
2017-12-31T21:36:51.503Z,6.67
2017-12-31T21:39:20.527Z,6.03
2017-12-31T21:41:49.817Z,6.37
2017-12-31T21:44:18.869Z,5.30
2017-12-31T21:46:47.858Z,4.77
2017-12-31T21:49:19.666Z,4.63
2017-12-31T21:51:48.613Z,4.73
2017-12-31T21:54:17.426Z,4.87
2017-12-31T21:56:46.398Z,4.53
2017-12-31T21:59:15.257Z,3.97
2017-12-31T22:01:44.279Z,5.17
2017-12-31T22:04:15.168Z,10.30
2017-12-31T22:06:44.112Z,15.33
2017-12-31T22:09:13.108Z,12.50
2017-12-31T22:11:44.357Z,22.03
2017-12-31T22:14:16.009Z,4.80
2017-12-31T22:16:45.118Z,5.07
2017-12-31T22:19:16.678Z,4.83
2017-12-31T22:21:45.547Z,9.50
2017-12-31T22:24:14.347Z,14.37
2017-12-31T22:26:44.008Z,6.77
2017-12-31T22:29:12.878Z,5.47
2017-12-31T22:31:41.711Z,6.27
2017-12-31T22:36:44.432Z,8.40
2017-12-31T22:39:13.606Z,3.13
2017-12-31T22:41:42.619Z,5.47
2017-12-31T22:44:11.710Z,5.80
2017-12-31T22:46:40.762Z,5.70
2017-12-31T22:49:09.705Z,5.43
2017-12-31T22:51:38.796Z,5.30
2017-12-31T22:54:07.676Z,4.70
2017-12-31T22:56:41.383Z,3.73
2017-12-31T22:59:10.289Z,5.37
2017-12-31T23:01:39.171Z,3.57
2017-12-31T23:04:09.903Z,4.17
2017-12-31T23:06:39.004Z,3.27
2017-12-31T23:09:07.990Z,4.23
2017-12-31T23:11:37.008Z,3.97
2017-12-31T23:14:05.989Z,3.40
2017-12-31T23:16:35.112Z,3.50
2017-12-31T23:19:04.407Z,3.93
2017-12-31T23:21:33.297Z,3.73
2017-12-31T23:24:02.907Z,4.40
2017-12-31T23:26:32.003Z,6.20
2017-12-31T23:29:01.677Z,4.53
2017-12-31T23:31:30.877Z,4.47
2017-12-31T23:34:02.431Z,5.53
2017-12-31T23:36:31.742Z,3.80
2017-12-31T23:39:00.760Z,3.40
2017-12-31T23:41:31.701Z,3.97
2017-12-31T23:44:00.661Z,3.57
2017-12-31T23:46:30.516Z,4.00
2017-12-31T23:49:00.595Z,6.47
2017-12-31T23:51:30.541Z,11.03
2017-12-31T23:54:00.318Z,11.60
2017-12-31T23:56:32.831Z,6.00
2017-12-31T23:59:01.899Z,3.67
